Time;durP1;ratioP1;P1;durP2;ratioP2;P2;SDS_P1;SDS_P2;PMS_P1;PMS_P2;Temp;Humidity;BMP_temperature;BMP_pressure;BME280_temperature;BME280_humidity;BME280_pressure;Samples;Min_cycle;Max_cycle;Signal;HPM_P1;HPM_P2
2021/12/11 00:00:41;;;;;;;;;2.25;2.25;;;;;;;;5097700;27;46414;-87
2021/12/11 00:03:18;;;;;;;;;5.00;4.50;;;;;;;;5097848;27;45445;-86
2021/12/11 00:05:45;;;;;;;;;3.00;3.00;;;;;;;;5116321;27;45290;-85
2021/12/11 00:08:13;;;;;;;;;4.00;3.00;;;;;;;;5097042;27;45477;-87
2021/12/11 00:10:41;;;;;;;;;4.00;2.50;;;;;;;;5115693;27;46252;-86
2021/12/11 00:13:09;;;;;;;;;3.00;3.00;;;;;;;;5097414;27;45945;-84
2021/12/11 00:15:37;;;;;;;;;3.00;3.00;;;;;;;;5116172;27;45314;-86
2021/12/11 00:18:05;;;;;;;;;3.50;3.00;;;;;;;;5097307;27;45295;-86
2021/12/11 00:20:32;;;;;;;;;3.50;3.00;;;;;;;;5097398;27;47018;-85
2021/12/11 00:22:58;;;;;;;;;2.75;2.00;;;;;;;;5115485;27;45257;-86
2021/12/11 00:25:24;;;;;;;;;2.00;2.00;;;;;;;;5097511;27;45442;-86
2021/12/11 00:27:51;;;;;;;;;4.50;2.00;;;;;;;;5097961;27;45465;-85
2021/12/11 00:30:25;;;;;;;;;2.00;2.00;;;;;;;;5097108;27;47103;-83
2021/12/11 00:32:56;;;;;;;;;2.00;2.00;;;;;;;;5115130;27;45381;-86
2021/12/11 00:35:22;;;;;;;;;2.75;2.00;;;;;;;;5115615;27;45334;-85
2021/12/11 00:37:48;;;;;;;;;5.00;3.00;;;;;;;;5115706;27;45441;-85
2021/12/11 00:40:19;;;;;;;;;5.75;3.75;;;;;;;;5115404;27;46704;-85
2021/12/11 00:42:51;;;;;;;;;6.00;2.25;;;;;;;;5096888;27;45757;-86
2021/12/11 00:45:19;;;;;;;;;3.00;3.00;;;;;;;;5096820;27;45296;-83
2021/12/11 00:47:50;;;;;;;;;2.75;2.00;;;;;;;;5115474;27;45284;-86
2021/12/11 00:50:16;;;;;;;;;4.50;3.00;;;;;;;;5093231;27;46483;-85
2021/12/11 00:52:51;;;;;;;;;2.50;2.50;;;;;;;;5094549;27;45453;-86
2021/12/11 00:55:16;;;;;;;;;3.50;2.00;;;;;;;;5094751;27;45460;-85
2021/12/11 00:57:42;;;;;;;;;2.00;2.00;;;;;;;;5093494;27;45484;-85
2021/12/11 01:00:09;;;;;;;;;1.00;1.00;;;;;;;;5092929;27;48721;-86
2021/12/11 01:02:35;;;;;;;;;3.00;2.00;;;;;;;;5092427;27;45941;-85
2021/12/11 01:05:00;;;;;;;;;4.50;4.50;;;;;;;;5093564;27;45648;-85
2021/12/11 01:07:31;;;;;;;;;2.25;2.25;;;;;;;;5093802;27;45293;-86
2021/12/11 01:10:00;;;;;;;;;2.75;2.00;;;;;;;;5094360;27;46173;-83
2021/12/11 01:12:38;;;;;;;;;2.25;2.25;;;;;;;;5093836;27;45672;-86
2021/12/11 01:15:13;;;;;;;;;3.00;2.00;;;;;;;;5094877;27;45456;-86
2021/12/11 01:18:01;;;;;;;;;4.50;2.00;;;;;;;;5092790;27;45621;-86
2021/12/11 01:20:34;;;;;;;;;3.00;3.00;;;;;;;;5093994;27;45574;-84
2021/12/11 01:23:00;;;;;;;;;2.00;2.00;;;;;;;;5093769;27;45277;-82
2021/12/11 01:25:26;;;;;;;;;2.00;1.25;;;;;;;;5092523;27;45571;-84
2021/12/11 01:27:54;;;;;;;;;4.00;2.75;;;;;;;;5094499;27;45720;-85
2021/12/11 01:30:23;;;;;;;;;4.50;2.00;;;;;;;;5093872;27;46334;-85
2021/12/11 01:32:49;;;;;;;;;1.25;1.25;;;;;;;;5092534;27;45288;-86
2021/12/11 01:35:16;;;;;;;;;2.50;1.00;;;;;;;;5092901;27;45408;-85
2021/12/11 01:37:42;;;;;;;;;4.25;2.75;;;;;;;;5093925;27;45414;-84
2021/12/11 01:40:09;;;;;;;;;1.75;1.25;;;;;;;;5092508;27;46641;-84
2021/12/11 01:42:35;;;;;;;;;2.25;1.75;;;;;;;;5093971;27;45849;-85
2021/12/11 01:45:03;;;;;;;;;5.50;3.00;;;;;;;;5093647;27;45463;-85
2021/12/11 01:47:32;;;;;;;;;3.50;2.00;;;;;;;;5096148;27;45255;-82
2021/12/11 01:50:04;;;;;;;;;2.75;2.00;;;;;;;;5098255;27;46881;-85
2021/12/11 01:52:49;;;;;;;;;2.25;2.00;;;;;;;;5099225;27;45750;-84
2021/12/11 01:55:18;;;;;;;;;2.25;1.00;;;;;;;;5099397;27;45336;-85
2021/12/11 01:57:47;;;;;;;;;3.00;1.50;;;;;;;;5099432;27;45410;-86
2021/12/11 02:00:15;;;;;;;;;2.00;1.00;;;;;;;;5117812;27;45681;-82
2021/12/11 02:02:44;;;;;;;;;4.50;2.75;;;;;;;;5098738;27;45341;-82
2021/12/11 02:05:11;;;;;;;;;2.00;1.50;;;;;;;;5099272;27;45307;-82
2021/12/11 02:07:42;;;;;;;;;2.00;2.00;;;;;;;;5098745;27;45314;-82
2021/12/11 02:10:20;;;;;;;;;2.25;2.00;;;;;;;;5117488;27;45685;-82
2021/12/11 02:12:46;;;;;;;;;2.50;2.00;;;;;;;;5117281;27;45692;-82
2021/12/11 02:15:15;;;;;;;;;2.00;2.00;;;;;;;;5098819;27;45442;-82
2021/12/11 02:17:50;;;;;;;;;2.75;2.00;;;;;;;;5099381;27;45679;-86
2021/12/11 02:20:19;;;;;;;;;1.75;1.00;;;;;;;;5099708;27;48030;-84
2021/12/11 02:22:47;;;;;;;;;1.75;1.75;;;;;;;;5117488;27;45283;-86
2021/12/11 02:25:15;;;;;;;;;4.00;1.50;;;;;;;;5099180;27;45582;-86
2021/12/11 02:27:44;;;;;;;;;2.00;2.00;;;;;;;;5098964;27;45524;-84
2021/12/11 02:30:20;;;;;;;;;1.00;1.00;;;;;;;;5117494;27;45671;-86
2021/12/11 02:32:50;;;;;;;;;3.00;2.00;;;;;;;;5099107;27;45730;-85
2021/12/11 02:35:27;;;;;;;;;1.50;1.50;;;;;;;;5117815;27;45270;-85
2021/12/11 02:37:56;;;;;;;;;2.50;2.50;;;;;;;;5117167;27;45514;-86
2021/12/11 02:40:41;;;;;;;;;1.50;1.00;;;;;;;;5117241;27;46596;-86
2021/12/11 02:43:19;;;;;;;;;2.00;2.00;;;;;;;;5117090;27;45467;-86
2021/12/11 02:45:50;;;;;;;;;3.00;2.00;;;;;;;;5099113;27;45464;-84
2021/12/11 02:48:15;;;;;;;;;1.75;1.75;;;;;;;;5098911;27;45319;-85
2021/12/11 02:50:44;;;;;;;;;2.00;2.00;;;;;;;;5094456;27;48359;-86
2021/12/11 02:53:13;;;;;;;;;3.00;2.25;;;;;;;;5095340;27;45708;-85
2021/12/11 02:55:59;;;;;;;;;3.00;2.50;;;;;;;;5095422;27;45523;-85
2021/12/11 02:58:26;;;;;;;;;2.00;2.00;;;;;;;;5095520;27;45436;-86
2021/12/11 03:00:52;;;;;;;;;1.00;1.00;;;;;;;;5096390;27;45300;-85
2021/12/11 03:03:22;;;;;;;;;1.00;1.00;;;;;;;;5095087;27;45322;-84
2021/12/11 03:05:57;;;;;;;;;3.00;2.50;;;;;;;;5096001;27;45983;-83
2021/12/11 03:08:22;;;;;;;;;2.50;2.00;;;;;;;;5095298;27;45502;-86
2021/12/11 03:10:50;;;;;;;;;2.33;2.33;;;;;;;;5094859;27;46162;-86
2021/12/11 03:13:15;;;;;;;;;4.50;2.75;;;;;;;;5096102;27;45757;-85
2021/12/11 03:15:41;;;;;;;;;3.00;2.00;;;;;;;;5094972;27;45400;-86
2021/12/11 03:18:06;;;;;;;;;5.75;5.75;;;;;;;;5096617;27;45329;-85
2021/12/11 03:20:34;;;;;;;;;2.00;2.00;;;;;;;;5096236;27;45323;-85
2021/12/11 03:22:59;;;;;;;;;2.00;2.00;;;;;;;;5094874;27;45695;-86
2021/12/11 03:25:26;;;;;;;;;2.75;2.50;;;;;;;;5096050;27;45404;-85
2021/12/11 03:27:52;;;;;;;;;2.50;2.50;;;;;;;;5094715;27;45429;-85
2021/12/11 03:30:21;;;;;;;;;2.00;2.00;;;;;;;;5094545;27;48689;-83
2021/12/11 03:32:49;;;;;;;;;6.25;5.25;;;;;;;;5094573;27;45094;-85
2021/12/11 03:35:14;;;;;;;;;4.50;3.00;;;;;;;;5095918;27;45336;-83
2021/12/11 03:37:39;;;;;;;;;1.50;1.25;;;;;;;;5094353;27;45565;-85
2021/12/11 03:40:05;;;;;;;;;3.00;2.00;;;;;;;;5095888;27;45691;-86
2021/12/11 03:42:32;;;;;;;;;4.00;3.50;;;;;;;;5095156;27;45258;-86
2021/12/11 03:44:58;;;;;;;;;2.75;2.75;;;;;;;;5094796;27;45689;-86
2021/12/11 03:47:26;;;;;;;;;0.50;0.50;;;;;;;;5095939;27;45535;-85
2021/12/11 03:49:51;;;;;;;;;2.00;1.50;;;;;;;;5095585;27;45655;-86
2021/12/11 03:52:17;;;;;;;;;2.00;1.00;;;;;;;;5115957;27;45372;-84
2021/12/11 03:54:50;;;;;;;;;2.50;2.00;;;;;;;;5116329;27;45260;-84
2021/12/11 03:57:17;;;;;;;;;1.00;1.00;;;;;;;;5116099;27;45360;-85
2021/12/11 03:59:44;;;;;;;;;1.25;1.25;;;;;;;;5116085;27;46163;-84
2021/12/11 04:02:11;;;;;;;;;2.00;1.00;;;;;;;;5115891;27;45290;-86
2021/12/11 04:04:36;;;;;;;;;1.75;1.00;;;;;;;;5116605;27;45297;-86
2021/12/11 04:07:03;;;;;;;;;2.50;1.75;;;;;;;;5115364;27;45520;-85
2021/12/11 04:09:29;;;;;;;;;5.50;2.00;;;;;;;;5097083;27;46628;-82
2021/12/11 04:11:55;;;;;;;;;3.00;2.25;;;;;;;;5115651;27;45360;-83
2021/12/11 04:14:24;;;;;;;;;2.00;1.50;;;;;;;;5097244;27;45459;-82
2021/12/11 04:16:50;;;;;;;;;3.00;2.50;;;;;;;;5115659;27;45615;-83
2021/12/11 04:19:15;;;;;;;;;1.25;1.25;;;;;;;;5115928;27;46074;-82
2021/12/11 04:21:43;;;;;;;;;2.67;2.00;;;;;;;;5114776;27;45842;-81
2021/12/11 04:24:10;;;;;;;;;1.00;1.00;;;;;;;;5115679;27;45331;-82
2021/12/11 04:26:35;;;;;;;;;2.00;1.00;;;;;;;;5115471;27;45360;-81
2021/12/11 04:29:01;;;;;;;;;13.33;11.67;;;;;;;;5115341;27;45423;-82
2021/12/11 04:31:28;;;;;;;;;3.00;3.00;;;;;;;;5096926;27;45568;-82
2021/12/11 04:33:55;;;;;;;;;2.25;2.25;;;;;;;;5115530;27;45362;-82
2021/12/11 04:36:23;;;;;;;;;13.50;11.50;;;;;;;;5114952;27;45450;-81
2021/12/11 04:38:49;;;;;;;;;8.50;6.25;;;;;;;;5096922;27;46356;-85
2021/12/11 04:41:18;;;;;;;;;6.00;5.00;;;;;;;;5097789;27;45477;-87
2021/12/11 04:43:44;;;;;;;;;6.50;5.00;;;;;;;;5116047;27;44986;-86
2021/12/11 04:46:10;;;;;;;;;3.00;3.00;;;;;;;;5115705;27;45267;-86
2021/12/11 04:49:05;;;;;;;;;2.25;2.25;;;;;;;;5115304;27;46270;-85
2021/12/11 04:51:34;;;;;;;;;2.00;1.50;;;;;;;;5113913;27;45117;-84
2021/12/11 04:54:27;;;;;;;;;5.50;3.75;;;;;;;;5115674;27;45452;-85
2021/12/11 04:59:43;;;;;;;;;2.00;2.00;;;;;;;;5115280;27;45284;-85
2021/12/11 05:04:51;;;;;;;;;2.50;2.50;;;;;;;;5115395;27;45414;-85
2021/12/11 05:10:18;;;;;;;;;2.75;2.75;;;;;;;;5115016;27;46168;-86
2021/12/11 05:12:45;;;;;;;;;2.75;2.00;;;;;;;;5115121;27;45378;-86
2021/12/11 05:15:25;;;;;;;;;2.25;2.00;;;;;;;;5096787;27;45373;-85
2021/12/11 05:17:51;;;;;;;;;3.00;2.50;;;;;;;;5096647;27;45394;-86
2021/12/11 05:20:17;;;;;;;;;4.50;3.00;;;;;;;;5113696;27;45867;-87
2021/12/11 05:22:43;;;;;;;;;5.00;3.00;;;;;;;;5114503;27;45409;-86
2021/12/11 05:25:09;;;;;;;;;3.00;3.00;;;;;;;;5114982;27;45428;-82
2021/12/11 05:27:35;;;;;;;;;1.50;1.50;;;;;;;;5095938;27;45646;-86
2021/12/11 05:30:02;;;;;;;;;1.00;0.00;;;;;;;;5114826;27;45371;-86
2021/12/11 05:32:27;;;;;;;;;6.50;3.00;;;;;;;;5096349;27;45833;-85
2021/12/11 05:34:53;;;;;;;;;3.00;2.00;;;;;;;;5115158;27;45204;-84
2021/12/11 05:37:19;;;;;;;;;4.00;2.00;;;;;;;;5095973;27;45692;-86
2021/12/11 05:39:45;;;;;;;;;4.75;2.50;;;;;;;;5114699;27;45679;-86
2021/12/11 05:42:10;;;;;;;;;3.00;2.00;;;;;;;;5115081;27;45623;-86
2021/12/11 05:44:36;;;;;;;;;2.00;2.00;;;;;;;;5096286;27;45418;-84
2021/12/11 05:47:02;;;;;;;;;2.00;1.00;;;;;;;;5095934;27;45407;-85
2021/12/11 05:49:29;;;;;;;;;4.00;1.75;;;;;;;;5095931;27;47190;-86
2021/12/11 05:51:57;;;;;;;;;3.50;2.25;;;;;;;;5095573;27;45459;-86
2021/12/11 05:54:24;;;;;;;;;2.75;2.75;;;;;;;;5095846;27;45484;-85
2021/12/11 05:56:55;;;;;;;;;4.00;2.50;;;;;;;;5095656;27;45534;-84
2021/12/11 05:59:21;;;;;;;;;3.00;3.00;;;;;;;;5095774;27;47346;-83
2021/12/11 06:02:10;;;;;;;;;3.00;2.25;;;;;;;;5095670;27;45420;-86
2021/12/11 06:04:36;;;;;;;;;4.50;2.75;;;;;;;;5090057;27;45444;-86
2021/12/11 06:07:03;;;;;;;;;3.75;2.75;;;;;;;;5114298;27;45367;-85
2021/12/11 06:09:29;;;;;;;;;3.25;2.75;;;;;;;;5114578;27;45440;-85
2021/12/11 06:11:57;;;;;;;;;2.50;2.50;;;;;;;;5114054;27;45778;-85
2021/12/11 06:14:24;;;;;;;;;6.00;5.00;;;;;;;;5095737;27;45493;-86
2021/12/11 06:16:51;;;;;;;;;5.00;4.00;;;;;;;;5113940;27;45559;-86
2021/12/11 06:19:19;;;;;;;;;3.25;2.00;;;;;;;;5113827;27;47146;-85
2021/12/11 06:21:45;;;;;;;;;4.00;3.00;;;;;;;;5113702;27;45661;-84
2021/12/11 06:24:10;;;;;;;;;3.00;2.50;;;;;;;;5114229;27;45455;-82
2021/12/11 06:26:35;;;;;;;;;5.00;4.33;;;;;;;;5113867;27;45317;-86
2021/12/11 06:29:01;;;;;;;;;6.33;5.33;;;;;;;;5095011;27;47454;-83
2021/12/11 06:31:26;;;;;;;;;8.75;6.50;;;;;;;;5096612;27;45684;-82
2021/12/11 06:33:52;;;;;;;;;5.00;3.00;;;;;;;;5117329;27;45295;-83
2021/12/11 06:36:19;;;;;;;;;6.25;4.00;;;;;;;;5098378;27;45527;-84
2021/12/11 06:38:46;;;;;;;;;3.50;3.50;;;;;;;;5117043;27;45516;-81
2021/12/11 06:41:12;;;;;;;;;2.25;2.00;;;;;;;;5098604;27;46468;-82
2021/12/11 06:43:38;;;;;;;;;5.25;5.00;;;;;;;;5098497;27;45456;-82
2021/12/11 06:46:03;;;;;;;;;5.00;4.50;;;;;;;;5117135;27;45549;-82
2021/12/11 06:48:29;;;;;;;;;3.25;2.75;;;;;;;;5098270;27;47280;-82
2021/12/11 06:50:55;;;;;;;;;3.67;3.67;;;;;;;;5097598;27;45369;-82
2021/12/11 06:53:24;;;;;;;;;5.75;4.50;;;;;;;;5116821;27;45384;-82
2021/12/11 06:55:49;;;;;;;;;2.25;2.25;;;;;;;;5117068;27;45251;-82
2021/12/11 06:58:15;;;;;;;;;1.67;0.00;;;;;;;;5116807;27;45412;-85
2021/12/11 07:00:40;;;;;;;;;2.00;2.00;;;;;;;;5098688;27;45455;-85
2021/12/11 07:03:05;;;;;;;;;3.33;2.00;;;;;;;;5117451;27;45495;-85
2021/12/11 07:05:30;;;;;;;;;3.67;3.33;;;;;;;;5098720;27;45495;-84
2021/12/11 07:07:56;;;;;;;;;2.00;1.33;;;;;;;;5098310;27;46085;-86
2021/12/11 07:10:23;;;;;;;;;3.50;2.25;;;;;;;;5098369;27;45301;-85
2021/12/11 07:12:49;;;;;;;;;6.75;5.50;;;;;;;;5116840;27;45400;-85
2021/12/11 07:15:14;;;;;;;;;5.00;3.50;;;;;;;;5117055;27;45345;-84
2021/12/11 07:17:40;;;;;;;;;2.75;2.00;;;;;;;;5098333;27;46095;-85
2021/12/11 07:20:07;;;;;;;;;2.25;2.25;;;;;;;;5116713;27;45486;-85
2021/12/11 07:22:32;;;;;;;;;3.00;3.00;;;;;;;;5116456;27;45464;-86
2021/12/11 07:25:04;;;;;;;;;3.67;3.67;;;;;;;;5116716;27;45254;-86
2021/12/11 07:27:29;;;;;;;;;3.25;3.25;;;;;;;;5098611;27;48330;-85
2021/12/11 07:29:55;;;;;;;;;4.33;3.33;;;;;;;;5097888;27;45418;-86
2021/12/11 07:32:21;;;;;;;;;3.25;3.25;;;;;;;;5098127;27;45495;-86
2021/12/11 07:34:46;;;;;;;;;2.00;2.00;;;;;;;;5116631;27;45587;-86
2021/12/11 07:37:11;;;;;;;;;4.75;4.00;;;;;;;;5116191;27;45362;-85
2021/12/11 07:39:37;;;;;;;;;5.00;2.25;;;;;;;;5097997;27;45359;-86
2021/12/11 07:42:02;;;;;;;;;5.25;4.75;;;;;;;;5115973;27;45371;-86
2021/12/11 07:44:28;;;;;;;;;2.00;2.00;;;;;;;;5097654;27;45373;-86
2021/12/11 07:46:55;;;;;;;;;3.25;3.00;;;;;;;;5098046;27;48101;-85
2021/12/11 07:49:21;;;;;;;;;5.25;4.75;;;;;;;;5098096;27;45839;-86
2021/12/11 07:51:48;;;;;;;;;4.25;3.25;;;;;;;;5115689;27;45475;-82
2021/12/11 07:54:13;;;;;;;;;7.00;6.50;;;;;;;;5117147;27;45622;-86
2021/12/11 07:56:38;;;;;;;;;5.00;4.00;;;;;;;;5098026;27;47324;-85
2021/12/11 07:59:05;;;;;;;;;5.00;5.00;;;;;;;;5116461;27;45274;-86
2021/12/11 08:01:33;;;;;;;;;6.00;5.75;;;;;;;;5098211;27;45352;-84
2021/12/11 08:03:59;;;;;;;;;5.50;5.50;;;;;;;;5097814;27;45475;-85
2021/12/11 08:06:25;;;;;;;;;6.00;5.00;;;;;;;;5097170;27;48233;-86
2021/12/11 08:08:50;;;;;;;;;4.50;3.25;;;;;;;;5116187;27;45311;-85
2021/12/11 08:11:17;;;;;;;;;5.00;4.33;;;;;;;;5116157;27;45249;-85
2021/12/11 08:13:44;;;;;;;;;4.00;4.00;;;;;;;;5097550;27;45384;-84
2021/12/11 08:16:09;;;;;;;;;7.25;6.00;;;;;;;;5097206;27;48183;-86
2021/12/11 08:18:35;;;;;;;;;6.25;5.25;;;;;;;;5115918;27;45433;-85
2021/12/11 08:21:00;;;;;;;;;7.00;5.00;;;;;;;;5115659;27;45436;-84
2021/12/11 08:23:25;;;;;;;;;7.25;6.00;;;;;;;;5097876;27;45610;-86
2021/12/11 08:25:51;;;;;;;;;7.33;6.00;;;;;;;;5115527;27;46883;-86
2021/12/11 08:28:20;;;;;;;;;6.00;6.00;;;;;;;;5115703;27;45328;-86
2021/12/11 08:30:46;;;;;;;;;7.25;6.00;;;;;;;;5097281;27;45433;-86
2021/12/11 08:33:12;;;;;;;;;9.00;8.25;;;;;;;;5097160;27;45454;-85
2021/12/11 08:35:37;;;;;;;;;7.00;5.75;;;;;;;;5096338;27;47046;-84
2021/12/11 08:38:04;;;;;;;;;8.33;7.67;;;;;;;;5116082;27;45964;-84
2021/12/11 08:40:34;;;;;;;;;5.50;4.50;;;;;;;;5115705;27;45358;-83
2021/12/11 08:43:00;;;;;;;;;6.75;6.75;;;;;;;;5096936;27;45493;-82
2021/12/11 08:45:43;;;;;;;;;6.50;5.75;;;;;;;;5096796;27;48331;-86
2021/12/11 08:48:09;;;;;;;;;6.25;5.00;;;;;;;;5096997;27;45516;-85
2021/12/11 08:50:34;;;;;;;;;8.25;6.00;;;;;;;;5114430;27;45379;-82
2021/12/11 08:52:59;;;;;;;;;5.67;5.00;;;;;;;;5115077;27;45240;-82
2021/12/11 08:55:30;;;;;;;;;3.67;3.00;;;;;;;;5096135;27;47360;-82
2021/12/11 08:57:56;;;;;;;;;7.50;6.50;;;;;;;;5114886;27;45897;-82
2021/12/11 09:00:21;;;;;;;;;11.00;10.50;;;;;;;;5115467;27;45469;-84
2021/12/11 09:02:52;;;;;;;;;13.00;8.33;;;;;;;;5114960;27;45423;-84
2021/12/11 09:05:23;;;;;;;;;11.25;10.00;;;;;;;;5114298;27;45473;-83
2021/12/11 09:07:51;;;;;;;;;19.00;16.00;;;;;;;;5115266;27;45501;-83
2021/12/11 09:10:19;;;;;;;;;9.00;9.00;;;;;;;;5096316;27;45322;-83
2021/12/11 09:13:07;;;;;;;;;7.00;6.50;;;;;;;;5114750;27;45484;-83
2021/12/11 09:15:56;;;;;;;;;6.75;6.00;;;;;;;;5106002;27;46517;-84
2021/12/11 09:18:34;;;;;;;;;3.75;2.50;;;;;;;;5090194;27;45747;-83
2021/12/11 09:20:59;;;;;;;;;6.00;5.50;;;;;;;;5095939;27;45420;-86
2021/12/11 09:23:28;;;;;;;;;7.67;7.00;;;;;;;;5115274;27;45341;-86
2021/12/11 09:25:53;;;;;;;;;5.00;3.00;;;;;;;;5115103;27;45507;-86
2021/12/11 09:28:22;;;;;;;;;7.33;6.00;;;;;;;;5115095;27;45301;-86
2021/12/11 09:30:51;;;;;;;;;6.00;6.00;;;;;;;;5096583;27;45329;-86
2021/12/11 09:33:19;;;;;;;;;7.25;6.75;;;;;;;;5115343;27;45613;-86
2021/12/11 09:35:49;;;;;;;;;7.25;7.00;;;;;;;;5114591;27;45314;-86
2021/12/11 09:38:21;;;;;;;;;7.75;6.50;;;;;;;;5114814;27;45416;-85
2021/12/11 09:40:55;;;;;;;;;9.25;7.50;;;;;;;;5096811;27;45646;-86
2021/12/11 09:43:27;;;;;;;;;3.00;3.00;;;;;;;;5096287;27;45430;-85
2021/12/11 09:45:52;;;;;;;;;6.75;6.25;;;;;;;;5095901;27;47148;-85
2021/12/11 09:48:18;;;;;;;;;11.00;8.33;;;;;;;;5096432;27;45319;-86
2021/12/11 09:50:50;;;;;;;;;7.75;7.50;;;;;;;;5114031;27;45298;-86
2021/12/11 09:53:17;;;;;;;;;6.50;6.00;;;;;;;;5095847;27;45390;-85
2021/12/11 09:55:43;;;;;;;;;10.00;7.00;;;;;;;;5095972;27;47444;-87
2021/12/11 09:58:12;;;;;;;;;11.50;9.50;;;;;;;;5114350;27;45532;-84
2021/12/11 10:00:58;;;;;;;;;7.00;5.50;;;;;;;;5095980;27;45325;-86
2021/12/11 10:03:26;;;;;;;;;8.50;6.75;;;;;;;;5096432;27;45429;-86
2021/12/11 10:06:12;;;;;;;;;6.75;6.75;;;;;;;;5096622;27;48128;-86
2021/12/11 10:08:42;;;;;;;;;10.50;9.50;;;;;;;;5118497;27;45709;-87
2021/12/11 10:11:10;;;;;;;;;10.75;8.00;;;;;;;;5118158;27;45365;-87
2021/12/11 10:13:39;;;;;;;;;9.75;8.25;;;;;;;;5099490;27;45376;-86
2021/12/11 10:16:05;;;;;;;;;7.25;6.75;;;;;;;;5099119;27;47447;-84
2021/12/11 10:18:31;;;;;;;;;8.75;6.50;;;;;;;;5098951;27;45368;-85
2021/12/11 10:21:00;;;;;;;;;8.00;6.25;;;;;;;;5117700;27;45341;-86
2021/12/11 10:23:28;;;;;;;;;6.50;6.00;;;;;;;;5099533;27;45685;-85
2021/12/11 10:25:55;;;;;;;;;10.50;8.00;;;;;;;;5099369;27;46951;-86
2021/12/11 10:28:23;;;;;;;;;4.25;2.25;;;;;;;;5099257;27;45396;-86
2021/12/11 10:30:52;;;;;;;;;10.75;10.75;;;;;;;;5099156;27;45552;-86
2021/12/11 10:33:18;;;;;;;;;5.00;5.00;;;;;;;;5099313;27;45642;-85
2021/12/11 10:35:46;;;;;;;;;8.00;7.00;;;;;;;;5117413;27;48061;-86
2021/12/11 10:38:12;;;;;;;;;7.75;6.00;;;;;;;;5098787;27;45813;-86
2021/12/11 10:40:41;;;;;;;;;7.75;6.00;;;;;;;;5117742;27;45449;-86
2021/12/11 10:43:08;;;;;;;;;6.75;6.50;;;;;;;;5099041;27;45487;-85
2021/12/11 10:45:34;;;;;;;;;6.00;6.00;;;;;;;;5098947;27;48253;-85
2021/12/11 10:48:01;;;;;;;;;6.00;5.50;;;;;;;;5117380;27;45436;-86
2021/12/11 10:50:29;;;;;;;;;9.25;8.00;;;;;;;;5095060;27;45342;-87
2021/12/11 10:52:55;;;;;;;;;11.75;10.75;;;;;;;;5096657;27;45373;-84
2021/12/11 10:55:22;;;;;;;;;10.00;10.00;;;;;;;;5096354;27;45416;-85
2021/12/11 10:57:50;;;;;;;;;9.25;8.75;;;;;;;;5096281;27;45426;-82
2021/12/11 11:00:21;;;;;;;;;13.75;12.75;;;;;;;;5096556;27;45486;-85
2021/12/11 11:02:49;;;;;;;;;11.25;10.50;;;;;;;;5095068;27;45336;-84
2021/12/11 11:05:16;;;;;;;;;9.00;9.00;;;;;;;;5096089;27;45562;-82
2021/12/11 11:07:42;;;;;;;;;10.75;9.25;;;;;;;;5096524;27;45533;-84
2021/12/11 11:10:10;;;;;;;;;9.25;8.00;;;;;;;;5096448;27;45376;-85
2021/12/11 11:12:36;;;;;;;;;15.25;12.00;;;;;;;;5096072;27;45315;-85
2021/12/11 11:15:02;;;;;;;;;10.75;10.75;;;;;;;;5096123;27;45524;-83
2021/12/11 11:17:29;;;;;;;;;9.50;8.00;;;;;;;;5094706;27;45381;-85
2021/12/11 11:19:56;;;;;;;;;14.50;12.75;;;;;;;;5094687;27;45450;-86
2021/12/11 11:22:23;;;;;;;;;11.50;11.50;;;;;;;;5094184;27;45240;-85
2021/12/11 11:24:51;;;;;;;;;12.00;11.00;;;;;;;;5095819;27;46646;-85
2021/12/11 11:27:17;;;;;;;;;10.00;7.50;;;;;;;;5095801;27;46266;-83
2021/12/11 11:29:43;;;;;;;;;8.75;8.75;;;;;;;;5094736;27;45386;-87
2021/12/11 11:32:11;;;;;;;;;16.75;14.50;;;;;;;;5094418;27;45622;-85
2021/12/11 11:34:40;;;;;;;;;18.50;15.25;;;;;;;;5095828;27;46510;-86
2021/12/11 11:37:06;;;;;;;;;17.25;12.50;;;;;;;;5095279;27;45995;-86
2021/12/11 11:39:31;;;;;;;;;17.75;17.75;;;;;;;;5095690;27;45447;-85
2021/12/11 11:41:58;;;;;;;;;9.00;8.00;;;;;;;;5095881;27;45442;-86
2021/12/11 11:44:26;;;;;;;;;7.50;7.25;;;;;;;;5095489;27;46667;-86
2021/12/11 11:46:52;;;;;;;;;8.25;7.50;;;;;;;;5096117;27;45248;-86
2021/12/11 11:49:18;;;;;;;;;9.00;8.75;;;;;;;;5094466;27;45350;-86
2021/12/11 11:51:47;;;;;;;;;7.00;7.00;;;;;;;;5093994;27;46053;-86
2021/12/11 11:54:14;;;;;;;;;10.25;9.00;;;;;;;;5093975;27;46987;-86
2021/12/11 11:56:43;;;;;;;;;10.25;8.00;;;;;;;;5094144;27;45410;-86
2021/12/11 11:59:09;;;;;;;;;13.50;12.50;;;;;;;;5094315;27;45378;-85
2021/12/11 12:01:38;;;;;;;;;7.00;7.00;;;;;;;;5094231;27;45420;-86
2021/12/11 12:04:04;;;;;;;;;10.75;8.25;;;;;;;;5094055;27;46538;-84
2021/12/11 12:06:33;;;;;;;;;7.50;6.50;;;;;;;;5095143;27;45273;-87
2021/12/11 12:08:59;;;;;;;;;5.75;5.75;;;;;;;;5095510;27;45401;-86
2021/12/11 12:11:27;;;;;;;;;10.75;9.25;;;;;;;;5095394;27;45295;-85
2021/12/11 12:13:53;;;;;;;;;12.75;11.50;;;;;;;;5095132;27;48197;-83
2021/12/11 12:16:18;;;;;;;;;15.25;14.25;;;;;;;;5093872;27;45724;-85
2021/12/11 12:18:44;;;;;;;;;13.00;10.75;;;;;;;;5093640;27;45313;-86
2021/12/11 12:21:11;;;;;;;;;8.50;8.50;;;;;;;;5093803;27;45301;-84
2021/12/11 12:23:36;;;;;;;;;12.25;11.50;;;;;;;;5095293;27;45483;-85
2021/12/11 12:26:04;;;;;;;;;8.00;8.00;;;;;;;;5093714;27;44882;-83
2021/12/11 12:28:31;;;;;;;;;9.00;8.00;;;;;;;;5094489;27;45528;-85
2021/12/11 12:30:58;;;;;;;;;13.00;12.50;;;;;;;;5093723;27;45612;-87
2021/12/11 12:33:24;;;;;;;;;7.25;6.50;;;;;;;;5094647;27;46636;-87
2021/12/11 12:35:49;;;;;;;;;12.25;11.50;;;;;;;;5094690;27;45629;-84
2021/12/11 12:38:17;;;;;;;;;13.00;8.50;;;;;;;;5093379;27;45380;-87
2021/12/11 12:40:48;;;;;;;;;9.00;8.75;;;;;;;;5094892;27;45493;-86
2021/12/11 12:43:21;;;;;;;;;11.25;10.00;;;;;;;;5093365;27;47173;-85
2021/12/11 12:45:50;;;;;;;;;14.50;10.50;;;;;;;;5093678;27;45946;-86
2021/12/11 12:48:18;;;;;;;;;7.00;7.00;;;;;;;;5093629;27;45423;-87
2021/12/11 12:50:46;;;;;;;;;11.00;11.00;;;;;;;;5090543;27;45387;-84
2021/12/11 12:53:11;;;;;;;;;10.00;8.75;;;;;;;;5093211;27;48042;-85
2021/12/11 12:55:39;;;;;;;;;11.75;11.25;;;;;;;;5093424;27;45755;-87
2021/12/11 12:58:08;;;;;;;;;13.00;12.75;;;;;;;;5094648;27;45431;-86
2021/12/11 13:00:38;;;;;;;;;11.75;11.50;;;;;;;;5094754;27;45302;-85
2021/12/11 13:03:08;;;;;;;;;16.75;15.00;;;;;;;;5094385;27;46163;-86
2021/12/11 13:05:33;;;;;;;;;13.75;13.00;;;;;;;;5092601;27;45449;-85
2021/12/11 13:08:04;;;;;;;;;10.00;10.00;;;;;;;;5094796;27;45483;-84
2021/12/11 13:10:40;;;;;;;;;9.25;8.25;;;;;;;;5094498;27;45329;-84
2021/12/11 13:13:06;;;;;;;;;8.75;8.00;;;;;;;;5094596;27;46401;-82
2021/12/11 13:15:36;;;;;;;;;9.75;9.75;;;;;;;;5092897;27;45882;-87
2021/12/11 13:18:04;;;;;;;;;16.00;12.75;;;;;;;;5094534;27;45363;-83
2021/12/11 13:20:29;;;;;;;;;11.25;11.00;;;;;;;;5092151;27;45676;-82
2021/12/11 13:22:54;;;;;;;;;13.33;11.67;;;;;;;;5094244;27;46129;-84
2021/12/11 13:25:22;;;;;;;;;10.00;9.25;;;;;;;;5093889;27;45428;-86
2021/12/11 13:27:49;;;;;;;;;10.50;10.00;;;;;;;;5092619;27;45409;-83
2021/12/11 13:30:18;;;;;;;;;11.00;8.75;;;;;;;;5094035;27;45274;-87
2021/12/11 13:32:43;;;;;;;;;10.50;10.00;;;;;;;;5093577;27;47103;-87
2021/12/11 13:35:12;;;;;;;;;10.00;8.75;;;;;;;;5092061;27;45414;-85
2021/12/11 13:37:37;;;;;;;;;12.25;9.75;;;;;;;;5092476;27;45294;-83
2021/12/11 13:40:06;;;;;;;;;11.00;9.50;;;;;;;;5092650;27;45800;-85
2021/12/11 13:42:32;;;;;;;;;10.50;9.75;;;;;;;;5097119;27;46250;-84
2021/12/11 13:45:00;;;;;;;;;10.00;9.00;;;;;;;;5097448;27;45474;-84
2021/12/11 13:47:28;;;;;;;;;8.25;8.00;;;;;;;;5097551;27;45350;-84
2021/12/11 13:49:54;;;;;;;;;8.75;8.75;;;;;;;;5096807;27;45305;-83
2021/12/11 13:52:20;;;;;;;;;9.75;9.00;;;;;;;;5095620;27;48221;-84
2021/12/11 13:54:47;;;;;;;;;9.75;8.25;;;;;;;;5097067;27;45406;-84
2021/12/11 13:57:23;;;;;;;;;10.75;9.25;;;;;;;;5097203;27;45481;-83
2021/12/11 13:59:49;;;;;;;;;8.00;7.00;;;;;;;;5095852;27;45377;-83
2021/12/11 14:02:15;;;;;;;;;6.75;6.75;;;;;;;;5097225;27;46124;-85
2021/12/11 14:04:40;;;;;;;;;11.00;8.00;;;;;;;;5097086;27;45298;-83
2021/12/11 14:07:12;;;;;;;;;9.00;8.00;;;;;;;;5095810;27;45735;-87
2021/12/11 14:09:51;;;;;;;;;9.00;8.00;;;;;;;;5096248;27;45362;-87
2021/12/11 14:12:17;;;;;;;;;7.00;5.75;;;;;;;;5095924;27;48603;-85
2021/12/11 14:14:43;;;;;;;;;8.00;7.75;;;;;;;;5095831;27;45413;-87
2021/12/11 14:17:12;;;;;;;;;8.00;8.00;;;;;;;;5097522;27;45286;-83
2021/12/11 14:19:37;;;;;;;;;7.50;7.50;;;;;;;;5095700;27;45363;-86
2021/12/11 14:22:05;;;;;;;;;10.50;8.50;;;;;;;;5095406;27;48170;-86
2021/12/11 14:24:31;;;;;;;;;12.25;10.00;;;;;;;;5097090;27;45575;-87
2021/12/11 14:26:57;;;;;;;;;8.75;8.75;;;;;;;;5096280;27;45356;-86
2021/12/11 14:29:23;;;;;;;;;19.50;18.25;;;;;;;;5095489;27;45479;-85
2021/12/11 14:31:49;;;;;;;;;11.00;10.25;;;;;;;;5096548;27;45447;-85
2021/12/11 14:34:14;;;;;;;;;9.00;8.25;;;;;;;;5095391;27;45727;-86
2021/12/11 14:36:39;;;;;;;;;9.25;8.00;;;;;;;;5096534;27;45325;-87
2021/12/11 14:39:10;;;;;;;;;10.50;9.50;;;;;;;;5095377;27;45452;-86
2021/12/11 14:41:38;;;;;;;;;16.25;11.50;;;;;;;;5096663;27;46522;-87
2021/12/11 14:44:05;;;;;;;;;17.00;16.50;;;;;;;;5095373;27;45505;-87
2021/12/11 14:46:31;;;;;;;;;12.50;10.25;;;;;;;;5096841;27;45594;-83
2021/12/11 14:48:57;;;;;;;;;14.25;12.75;;;;;;;;5095150;27;45321;-85
2021/12/11 14:51:23;;;;;;;;;9.50;9.00;;;;;;;;5094453;27;47267;-86